createdAt,value
2018-09-15T00:01:03.769Z,79.68
2018-09-15T00:03:32.083Z,79.98
2018-09-15T00:06:00.417Z,80.23
2018-09-15T00:08:28.925Z,80.09
2018-09-15T00:10:57.250Z,79.20
2018-09-15T00:13:25.615Z,79.33
2018-09-15T00:15:54.011Z,78.83
2018-09-15T00:18:22.348Z,78.53
2018-09-15T00:20:50.862Z,78.56
2018-09-15T00:23:19.233Z,78.68
2018-09-15T00:25:47.563Z,78.90
2018-09-15T00:28:16.036Z,78.97
2018-09-15T00:30:44.332Z,79.31
2018-09-15T00:33:12.665Z,79.27
2018-09-15T00:35:41.000Z,79.50
2018-09-15T00:38:09.385Z,80.42
2018-09-15T00:40:37.825Z,80.79
2018-09-15T00:43:06.167Z,80.26
2018-09-15T00:45:34.523Z,80.53
2018-09-15T00:48:03.728Z,78.65
2018-09-15T00:50:32.059Z,78.30
2018-09-15T00:53:00.719Z,79.05
2018-09-15T00:55:29.107Z,80.03
2018-09-15T00:57:57.437Z,79.56
2018-09-15T01:00:25.790Z,80.72
2018-09-15T01:02:54.408Z,80.92
2018-09-15T01:05:22.703Z,81.42
2018-09-15T01:07:51.000Z,81.83
2018-09-15T01:10:19.336Z,81.91
2018-09-15T01:12:47.658Z,82.06
2018-09-15T01:15:15.970Z,81.37
2018-09-15T01:17:44.279Z,83.18
2018-09-15T01:20:12.819Z,83.24
2018-09-15T01:22:41.051Z,83.56
2018-09-15T01:25:09.380Z,83.23
2018-09-15T01:27:37.771Z,83.00
2018-09-15T01:30:06.158Z,82.97
2018-09-15T01:32:34.439Z,82.70
2018-09-15T01:35:02.810Z,82.63
2018-09-15T01:37:31.242Z,82.70
2018-09-15T01:39:59.641Z,81.97
2018-09-15T01:42:27.953Z,83.44
2018-09-15T01:44:56.288Z,84.05
2018-09-15T01:47:24.640Z,83.32
2018-09-15T01:49:52.954Z,83.40
2018-09-15T01:52:21.315Z,83.49
2018-09-15T01:54:49.668Z,84.08
2018-09-15T01:57:17.979Z,83.83
2018-09-15T01:59:46.331Z,84.39
2018-09-15T02:02:14.842Z,84.99
2018-09-15T02:04:43.211Z,85.10
2018-09-15T02:07:11.549Z,84.73
2018-09-15T02:09:39.906Z,84.32
2018-09-15T02:12:08.193Z,85.04
2018-09-15T02:14:36.547Z,85.03
2018-09-15T02:17:04.861Z,84.83
2018-09-15T02:19:33.274Z,84.17
2018-09-15T02:22:01.725Z,83.85
2018-09-15T02:24:30.066Z,84.28
2018-09-15T02:26:58.445Z,84.26
2018-09-15T02:29:26.750Z,84.44
2018-09-15T02:31:55.052Z,84.76
2018-09-15T02:34:23.394Z,85.09
2018-09-15T02:36:51.703Z,84.77
2018-09-15T02:39:20.019Z,84.50
2018-09-15T02:41:48.359Z,83.81
2018-09-15T02:44:16.690Z,83.99
2018-09-15T02:46:45.010Z,85.02
2018-09-15T02:49:13.324Z,85.24
2018-09-15T02:51:41.682Z,85.71
2018-09-15T02:54:10.045Z,85.81
2018-09-15T02:56:38.419Z,85.05
2018-09-15T02:59:06.736Z,84.77
2018-09-15T03:01:35.253Z,84.91
2018-09-15T03:04:03.644Z,85.12
2018-09-15T03:06:32.082Z,85.42
2018-09-15T03:09:00.379Z,85.48
2018-09-15T03:11:28.753Z,85.71
2018-09-15T03:13:57.046Z,85.71
2018-09-15T03:16:25.346Z,85.74
2018-09-15T03:18:53.837Z,85.76
2018-09-15T03:21:22.177Z,85.42
2018-09-15T03:23:50.475Z,86.19
2018-09-15T03:26:18.834Z,85.61
2018-09-15T03:28:47.130Z,85.23
2018-09-15T03:31:15.474Z,85.64
2018-09-15T03:33:43.781Z,85.97
2018-09-15T03:36:12.331Z,86.38
2018-09-15T03:38:40.626Z,85.96
2018-09-15T03:41:08.978Z,87.16
2018-09-15T03:43:37.336Z,86.30
2018-09-15T03:46:05.762Z,86.63
2018-09-15T03:48:34.089Z,87.03
2018-09-15T03:51:02.451Z,86.95
2018-09-15T03:53:30.734Z,86.77
2018-09-15T03:55:59.212Z,86.62
2018-09-15T03:58:27.478Z,86.37
2018-09-15T04:00:55.789Z,86.18
2018-09-15T04:03:24.476Z,84.66
2018-09-15T04:05:52.834Z,84.91
2018-09-15T04:08:21.407Z,85.36
2018-09-15T04:10:49.741Z,85.29
2018-09-15T04:13:18.068Z,85.38
2018-09-15T04:15:46.371Z,84.81
2018-09-15T04:18:16.045Z,84.30
2018-09-15T04:20:45.647Z,83.00
2018-09-15T04:23:14.736Z,82.37
2018-09-15T04:25:43.534Z,82.05
2018-09-15T04:28:11.974Z,81.77
2018-09-15T04:30:40.590Z,81.45
2018-09-15T04:33:09.179Z,81.59
2018-09-15T04:35:37.503Z,81.16
2018-09-15T04:38:06.303Z,80.17
2018-09-15T04:40:34.736Z,80.51
2018-09-15T04:43:03.050Z,80.31
2018-09-15T04:45:31.442Z,80.06
2018-09-15T04:47:59.804Z,79.86
2018-09-15T04:50:28.084Z,80.46
2018-09-15T04:52:56.442Z,80.36
2018-09-15T04:55:24.708Z,80.29
2018-09-15T04:57:53.122Z,79.62
2018-09-15T05:00:21.443Z,80.15
2018-09-15T05:02:50.015Z,80.11
2018-09-15T05:05:25.060Z,79.08
2018-09-15T05:07:53.647Z,79.47
2018-09-15T05:10:22.051Z,79.13
2018-09-15T05:12:50.533Z,79.41
2018-09-15T05:15:18.851Z,80.16
2018-09-15T05:17:47.199Z,80.23
2018-09-15T05:20:15.549Z,80.29
2018-09-15T05:22:43.910Z,79.99
2018-09-15T05:25:12.278Z,80.18
2018-09-15T05:27:40.667Z,80.27
2018-09-15T05:30:09.516Z,80.22
2018-09-15T05:32:37.959Z,80.15
2018-09-15T05:35:06.434Z,79.38
2018-09-15T05:37:34.817Z,78.91
2018-09-15T05:40:03.261Z,79.02
2018-09-15T05:42:31.516Z,77.83
2018-09-15T05:44:59.887Z,77.67
2018-09-15T05:47:28.250Z,78.07
2018-09-15T05:49:56.547Z,77.53
2018-09-15T05:52:24.947Z,77.04
2018-09-15T05:54:53.710Z,77.30
2018-09-15T05:57:22.091Z,77.89
2018-09-15T05:59:50.437Z,77.11
2018-09-15T06:02:18.773Z,77.10
2018-09-15T06:04:47.163Z,76.66
2018-09-15T06:07:15.494Z,76.35
2018-09-15T06:09:43.835Z,75.62
2018-09-15T06:12:12.158Z,76.33
2018-09-15T06:14:40.546Z,76.16
2018-09-15T06:17:09.347Z,77.00
2018-09-15T06:19:37.827Z,76.09
2018-09-15T06:22:06.278Z,75.65
2018-09-15T06:24:34.612Z,75.53
2018-09-15T06:27:02.958Z,75.42
2018-09-15T06:29:31.285Z,75.47
2018-09-15T06:32:01.520Z,75.87
2018-09-15T06:34:29.854Z,76.24
2018-09-15T06:36:58.155Z,76.14
2018-09-15T06:39:26.577Z,75.86
2018-09-15T06:41:54.945Z,75.92
2018-09-15T06:44:23.254Z,76.07
2018-09-15T06:46:51.554Z,75.97
2018-09-15T06:49:19.956Z,75.32
2018-09-15T06:51:48.276Z,75.32
2018-09-15T06:54:21.746Z,75.56
2018-09-15T06:56:50.087Z,75.98
2018-09-15T06:59:18.579Z,74.07
2018-09-15T07:01:46.873Z,74.97
2018-09-15T07:04:15.198Z,74.00
2018-09-15T07:06:43.556Z,73.73
2018-09-15T07:09:14.053Z,73.90
2018-09-15T07:11:42.382Z,72.96
2018-09-15T07:14:11.476Z,73.09
2018-09-15T07:16:40.143Z,72.90
2018-09-15T07:19:08.563Z,71.96
2018-09-15T07:21:36.891Z,71.75
2018-09-15T07:24:05.281Z,72.08
2018-09-15T07:26:33.617Z,72.28
2018-09-15T07:29:02.103Z,72.11
2018-09-15T07:31:30.453Z,71.87
2018-09-15T07:33:58.814Z,72.03
2018-09-15T07:36:27.110Z,71.49
2018-09-15T07:38:55.532Z,70.86
2018-09-15T07:41:24.116Z,71.03
2018-09-15T07:43:52.450Z,71.24
2018-09-15T07:46:20.878Z,70.96
2018-09-15T07:48:49.286Z,71.25
2018-09-15T07:51:17.587Z,70.66
2018-09-15T07:53:45.966Z,71.32
2018-09-15T07:56:14.246Z,70.61
2018-09-15T07:58:42.631Z,70.50
2018-09-15T08:01:10.986Z,70.31
2018-09-15T08:03:39.300Z,70.71
2018-09-15T08:06:07.611Z,70.74
2018-09-15T08:08:35.900Z,69.95
2018-09-15T08:11:04.261Z,69.64
2018-09-15T08:13:32.560Z,69.32
2018-09-15T08:16:00.879Z,68.97
2018-09-15T08:18:29.248Z,69.02
2018-09-15T08:20:57.571Z,68.49
2018-09-15T08:23:25.882Z,67.31
2018-09-15T08:25:54.265Z,66.21
2018-09-15T08:28:22.615Z,68.05
2018-09-15T08:30:50.938Z,68.05
2018-09-15T08:33:19.299Z,67.01
2018-09-15T08:35:47.639Z,67.77
2018-09-15T08:38:15.961Z,66.87
2018-09-15T08:40:44.394Z,65.92
2018-09-15T08:43:12.723Z,66.67
2018-09-15T08:45:42.239Z,65.14
2018-09-15T08:48:10.634Z,64.83
2018-09-15T08:50:39.418Z,65.53
2018-09-15T08:53:07.789Z,66.29
2018-09-15T08:55:36.128Z,65.89
2018-09-15T08:58:04.517Z,65.32
2018-09-15T09:00:32.838Z,66.15
2018-09-15T09:03:01.163Z,65.45
2018-09-15T09:05:29.459Z,64.69
2018-09-15T09:07:57.867Z,65.38
2018-09-15T09:10:26.273Z,64.47
2018-09-15T09:12:54.522Z,65.76
2018-09-15T09:15:22.866Z,65.68
2018-09-15T09:17:51.173Z,65.82
2018-09-15T09:20:19.520Z,65.78
2018-09-15T09:22:47.841Z,65.29
2018-09-15T09:25:16.351Z,64.53
2018-09-15T09:27:44.667Z,64.81
2018-09-15T09:30:13.054Z,65.16
2018-09-15T09:32:41.387Z,63.91
2018-09-15T09:35:09.756Z,64.48
2018-09-15T09:37:38.228Z,62.17
2018-09-15T09:40:06.698Z,61.18
2018-09-15T09:42:35.010Z,62.38
2018-09-15T09:45:03.359Z,62.00
2018-09-15T09:47:31.720Z,61.78
2018-09-15T09:50:00.105Z,61.90
2018-09-15T09:52:28.459Z,60.76
2018-09-15T09:54:56.921Z,60.68
2018-09-15T09:57:25.268Z,61.24
2018-09-15T09:59:53.641Z,60.97
2018-09-15T10:02:24.857Z,61.83
2018-09-15T10:04:53.532Z,62.49
2018-09-15T10:07:21.864Z,61.58
2018-09-15T10:09:50.195Z,61.72
2018-09-15T10:12:18.487Z,60.45
2018-09-15T10:14:46.798Z,60.98
2018-09-15T10:17:15.090Z,60.56
2018-09-15T10:19:43.478Z,60.79
2018-09-15T10:22:11.956Z,59.25
2018-09-15T10:24:40.417Z,59.48
2018-09-15T10:27:08.744Z,59.77
2018-09-15T10:29:37.036Z,59.08
2018-09-15T10:32:05.437Z,58.24
2018-09-15T10:34:33.742Z,59.31
2018-09-15T10:37:02.273Z,58.20
2018-09-15T10:39:30.558Z,58.49
2018-09-15T10:41:58.934Z,58.39
2018-09-15T10:44:27.331Z,58.76
2018-09-15T10:46:55.653Z,59.02
2018-09-15T10:49:23.943Z,58.84
2018-09-15T10:51:52.248Z,59.17
2018-09-15T10:54:20.658Z,58.54
2018-09-15T10:56:49.176Z,58.34
2018-09-15T10:59:17.507Z,57.36
2018-09-15T11:01:45.854Z,57.79
2018-09-15T11:04:14.137Z,56.55
2018-09-15T11:06:42.490Z,55.59
2018-09-15T11:09:11.415Z,55.94
2018-09-15T11:11:39.790Z,54.47
2018-09-15T11:14:08.075Z,53.65
2018-09-15T11:16:36.490Z,52.83
2018-09-15T11:19:04.963Z,53.98
2018-09-15T11:21:33.327Z,56.20
2018-09-15T11:24:02.470Z,55.88
2018-09-15T11:27:34.270Z,56.37
2018-09-15T11:30:02.608Z,54.92
2018-09-15T11:32:31.047Z,55.75
2018-09-15T11:34:59.415Z,55.17
2018-09-15T11:37:27.749Z,55.89
2018-09-15T11:39:56.035Z,56.03
2018-09-15T11:42:24.423Z,57.50
2018-09-15T11:44:52.723Z,56.23
2018-09-15T11:47:21.451Z,55.94
2018-09-15T11:49:49.841Z,56.60
2018-09-15T11:52:18.387Z,57.59
2018-09-15T11:54:46.786Z,56.93
2018-09-15T11:57:15.435Z,56.32
2018-09-15T11:59:44.050Z,55.72
2018-09-15T12:02:12.758Z,54.57
2018-09-15T12:04:41.511Z,55.43
2018-09-15T12:07:09.886Z,55.32
2018-09-15T12:09:38.605Z,54.97
2018-09-15T12:12:07.327Z,54.85
2018-09-15T12:14:50.073Z,55.09
2018-09-15T12:17:18.548Z,54.67
2018-09-15T12:19:47.084Z,53.81
2018-09-15T12:22:15.411Z,54.91
2018-09-15T12:24:43.716Z,54.71
2018-09-15T12:27:12.024Z,54.80
2018-09-15T12:29:40.304Z,55.98
2018-09-15T12:32:08.732Z,55.72
2018-09-15T12:34:37.066Z,55.54
2018-09-15T12:37:05.451Z,54.98
2018-09-15T12:39:33.826Z,54.91
2018-09-15T12:42:02.087Z,53.73
2018-09-15T12:44:30.368Z,54.34
2018-09-15T12:46:58.715Z,53.97
2018-09-15T12:49:27.022Z,53.09
2018-09-15T12:51:55.348Z,53.57
2018-09-15T12:54:23.763Z,53.67
2018-09-15T12:56:52.104Z,53.61
2018-09-15T12:59:20.422Z,54.37
2018-09-15T13:01:48.753Z,53.94
2018-09-15T13:04:17.079Z,53.78
2018-09-15T13:06:45.385Z,53.24
2018-09-15T13:09:13.955Z,53.76
2018-09-15T13:11:42.292Z,54.27
2018-09-15T13:14:10.660Z,53.65
2018-09-15T13:16:39.278Z,54.27
2018-09-15T13:19:07.651Z,54.23
2018-09-15T13:21:35.937Z,54.40
2018-09-15T13:24:04.297Z,53.99
2018-09-15T13:26:32.657Z,54.62
2018-09-15T13:29:01.015Z,53.32
2018-09-15T13:31:29.323Z,53.65
2018-09-15T13:33:57.614Z,52.07
2018-09-15T13:36:25.907Z,52.23
2018-09-15T13:38:55.225Z,52.84
2018-09-15T13:41:23.611Z,51.28
2018-09-15T13:43:51.939Z,51.54
2018-09-15T13:46:20.223Z,51.78
2018-09-15T13:48:48.527Z,49.88
2018-09-15T13:51:16.835Z,52.10
2018-09-15T13:53:45.167Z,50.66
2018-09-15T13:56:13.466Z,51.69
2018-09-15T13:58:41.856Z,52.71
2018-09-15T14:01:10.261Z,51.90
2018-09-15T14:03:38.598Z,52.10
2018-09-15T14:06:06.986Z,50.16
2018-09-15T14:08:35.430Z,50.80
2018-09-15T14:11:03.729Z,51.28
2018-09-15T14:13:32.263Z,52.36
2018-09-15T14:16:00.824Z,53.20
2018-09-15T14:18:29.156Z,51.70
2018-09-15T14:20:57.477Z,51.83
2018-09-15T14:23:25.963Z,51.83
2018-09-15T14:25:54.346Z,50.63
2018-09-15T14:28:22.712Z,50.61
2018-09-15T14:30:51.050Z,51.77
2018-09-15T14:33:19.544Z,51.65
2018-09-15T14:35:47.838Z,52.05
2018-09-15T14:38:16.168Z,52.14
2018-09-15T14:40:44.569Z,51.52
2018-09-15T14:43:12.926Z,51.87
2018-09-15T14:45:41.346Z,52.57
2018-09-15T14:48:09.742Z,52.63
2018-09-15T14:50:38.069Z,51.58
2018-09-15T14:53:06.395Z,52.45
2018-09-15T14:55:34.817Z,53.33
2018-09-15T14:58:03.138Z,53.30
2018-09-15T15:00:31.558Z,53.97
2018-09-15T15:03:02.489Z,54.17
2018-09-15T15:05:30.877Z,54.16
2018-09-15T15:07:59.215Z,54.18
2018-09-15T15:10:27.544Z,54.14
2018-09-15T15:12:55.832Z,55.35
2018-09-15T15:15:24.253Z,54.50
2018-09-15T15:17:52.591Z,55.27
2018-09-15T15:20:21.034Z,54.98
2018-09-15T15:22:49.471Z,55.36
2018-09-15T15:25:17.944Z,55.85
2018-09-15T15:27:46.330Z,55.32
2018-09-15T15:30:14.739Z,55.64
2018-09-15T15:32:43.149Z,56.22
2018-09-15T15:35:12.733Z,56.01
2018-09-15T15:37:41.269Z,55.83
2018-09-15T15:40:09.784Z,55.16
2018-09-15T15:42:38.116Z,56.11
2018-09-15T15:45:06.511Z,56.71
2018-09-15T15:47:34.937Z,56.47
2018-09-15T15:50:03.371Z,55.50
2018-09-15T15:52:31.771Z,55.86
2018-09-15T15:55:00.195Z,56.94
2018-09-15T15:57:28.693Z,56.15
2018-09-15T15:59:57.115Z,56.59
2018-09-15T16:02:25.720Z,56.91
2018-09-15T16:04:54.098Z,56.92
2018-09-15T16:07:22.533Z,57.74
2018-09-15T16:09:50.957Z,58.43
2018-09-15T16:12:19.407Z,57.20
2018-09-15T16:14:48.651Z,58.27
2018-09-15T16:17:17.186Z,57.58
2018-09-15T16:19:45.651Z,56.15
2018-09-15T16:22:14.848Z,55.47
2018-09-15T16:24:43.219Z,55.37
2018-09-15T16:27:11.728Z,55.98
2018-09-15T16:29:40.054Z,54.92
2018-09-15T16:32:08.659Z,55.49
2018-09-15T16:34:37.349Z,55.51
2018-09-15T16:37:05.903Z,55.83
2018-09-15T16:39:34.305Z,55.74
2018-09-15T16:42:02.646Z,55.49
2018-09-15T16:44:31.175Z,55.89
2018-09-15T16:46:59.613Z,56.67
2018-09-15T16:49:28.075Z,56.55
2018-09-15T16:51:56.449Z,56.37
2018-09-15T16:54:24.777Z,56.96
2018-09-15T16:56:53.189Z,57.08
2018-09-15T16:59:21.501Z,57.02
2018-09-15T17:01:50.028Z,58.19
2018-09-15T17:04:18.447Z,58.24
2018-09-15T17:06:46.770Z,57.69
2018-09-15T17:09:15.118Z,59.05
2018-09-15T17:11:43.453Z,59.18
2018-09-15T17:14:11.964Z,59.42
2018-09-15T17:16:40.380Z,59.38
2018-09-15T17:19:08.745Z,59.63
2018-09-15T17:21:37.055Z,59.96
2018-09-15T17:24:05.423Z,60.44
2018-09-15T17:26:34.775Z,61.10
2018-09-15T17:29:03.122Z,60.95
2018-09-15T17:31:31.547Z,61.74
2018-09-15T17:34:00.185Z,61.28
2018-09-15T17:36:28.666Z,62.16
2018-09-15T17:38:57.007Z,61.78
2018-09-15T17:41:25.353Z,61.85
2018-09-15T17:43:53.715Z,63.20
2018-09-15T17:46:21.995Z,62.44
2018-09-15T17:48:50.530Z,63.09
2018-09-15T17:51:18.855Z,63.65
2018-09-15T17:53:47.226Z,63.03
2018-09-15T17:56:15.586Z,63.17
2018-09-15T17:58:43.909Z,63.33
2018-09-15T18:01:12.384Z,63.65
2018-09-15T18:03:40.812Z,63.88
2018-09-15T18:06:09.242Z,64.06
2018-09-15T18:08:37.619Z,63.53
2018-09-15T18:11:06.148Z,64.03
2018-09-15T18:13:34.493Z,64.13
2018-09-15T18:16:02.944Z,64.48
2018-09-15T18:18:31.393Z,64.96
2018-09-15T18:20:59.741Z,64.04
2018-09-15T18:23:28.072Z,64.99
2018-09-15T18:25:56.430Z,65.75
2018-09-15T18:28:24.794Z,65.74
2018-09-15T18:30:53.145Z,65.86
2018-09-15T18:33:21.491Z,66.30
2018-09-15T18:35:49.834Z,66.60
2018-09-15T18:38:18.119Z,66.39
2018-09-15T18:40:46.469Z,66.35
2018-09-15T18:43:14.955Z,66.45
2018-09-15T18:45:43.310Z,66.48
2018-09-15T18:48:11.747Z,66.63
2018-09-15T18:50:40.658Z,66.55
2018-09-15T18:53:08.961Z,66.73
2018-09-15T18:55:37.301Z,66.42
2018-09-15T18:58:05.846Z,67.07
2018-09-15T19:00:34.476Z,68.14
2018-09-15T19:03:02.740Z,68.47
2018-09-15T19:05:31.235Z,69.07
2018-09-15T19:07:59.555Z,69.28
2018-09-15T19:10:27.969Z,69.93
2018-09-15T19:12:56.306Z,70.25
2018-09-15T19:15:24.686Z,71.19
2018-09-15T19:17:53.223Z,71.06
2018-09-15T19:20:21.565Z,72.00
2018-09-15T19:22:49.886Z,71.53
2018-09-15T19:25:18.203Z,71.36
2018-09-15T19:27:46.474Z,71.73
2018-09-15T19:30:14.830Z,71.63
2018-09-15T19:32:43.183Z,71.95
2018-09-15T19:35:11.586Z,71.73
2018-09-15T19:37:40.028Z,72.55
2018-09-15T19:40:08.470Z,74.31
2018-09-15T19:42:36.808Z,74.87
2018-09-15T19:45:05.315Z,75.43
2018-09-15T19:47:33.659Z,75.76
2018-09-15T19:50:02.128Z,75.54
2018-09-15T19:52:30.644Z,75.64
2018-09-15T19:54:58.969Z,76.15
2018-09-15T19:57:27.328Z,76.49
2018-09-15T19:59:55.686Z,77.07
2018-09-15T20:02:24.048Z,77.20
2018-09-15T20:04:52.515Z,76.22
2018-09-15T20:07:20.868Z,75.69
2018-09-15T20:09:49.212Z,75.98
2018-09-15T20:12:17.638Z,77.60
2018-09-15T20:14:46.202Z,78.31
2018-09-15T20:17:13.401Z,78.76
2018-09-15T20:19:40.712Z,78.56
2018-09-15T20:22:09.094Z,77.77
2018-09-15T20:24:37.415Z,77.35
2018-09-15T20:27:05.785Z,76.83
2018-09-15T20:29:34.239Z,77.34
2018-09-15T20:32:02.610Z,77.20
2018-09-15T20:34:30.970Z,77.22
2018-09-15T20:36:59.318Z,77.57
2018-09-15T20:39:27.665Z,77.29
2018-09-15T20:41:56.027Z,77.90
2018-09-15T20:44:24.360Z,77.44
2018-09-15T20:46:52.674Z,77.91
2018-09-15T20:49:20.996Z,78.09
2018-09-15T20:51:49.304Z,77.88
2018-09-15T20:54:17.655Z,78.36
2018-09-15T20:56:46.087Z,78.75
2018-09-15T20:59:14.422Z,77.95
2018-09-15T21:01:42.806Z,78.18
2018-09-15T21:04:11.210Z,78.13
2018-09-15T21:06:41.043Z,78.16
2018-09-15T21:09:11.106Z,78.57
2018-09-15T21:11:39.710Z,78.59
2018-09-15T21:14:08.790Z,79.81
2018-09-15T21:16:37.286Z,80.21
2018-09-15T21:19:06.471Z,80.31
2018-09-15T21:21:35.136Z,80.22
2018-09-15T21:24:03.530Z,80.51
2018-09-15T21:26:31.858Z,80.43
2018-09-15T21:29:00.231Z,80.10
2018-09-15T21:31:31.747Z,79.75
2018-09-15T21:34:00.078Z,79.43
2018-09-15T21:36:28.471Z,80.05
2018-09-15T21:38:56.855Z,80.24
2018-09-15T21:41:25.327Z,80.59
2018-09-15T21:43:53.787Z,80.97
2018-09-15T21:46:22.113Z,81.28
2018-09-15T21:48:50.494Z,80.30
2018-09-15T21:51:18.823Z,80.24
2018-09-15T21:53:47.290Z,80.71
2018-09-15T21:56:15.607Z,81.33
2018-09-15T21:58:44.157Z,80.91
2018-09-15T22:01:12.504Z,81.04
2018-09-15T22:03:45.966Z,80.74
2018-09-15T22:06:14.314Z,80.83
2018-09-15T22:08:42.664Z,80.56
2018-09-15T22:11:10.974Z,80.92
2018-09-15T22:13:39.356Z,80.59
2018-09-15T22:16:07.718Z,80.79
2018-09-15T22:18:36.057Z,80.54
2018-09-15T22:21:04.381Z,79.95
2018-09-15T22:23:32.694Z,80.55
2018-09-15T22:26:01.008Z,80.67
2018-09-15T22:28:29.372Z,80.10
2018-09-15T22:30:57.750Z,80.24
2018-09-15T22:33:26.103Z,80.24
2018-09-15T22:35:54.457Z,79.90
2018-09-15T22:38:22.758Z,79.39
2018-09-15T22:40:51.116Z,79.73
2018-09-15T22:43:19.643Z,79.79
2018-09-15T22:45:48.002Z,79.45
2018-09-15T22:48:16.291Z,80.11
2018-09-15T22:50:44.770Z,80.26
2018-09-15T22:53:13.082Z,81.30
2018-09-15T22:55:41.530Z,81.20
2018-09-15T22:58:09.862Z,81.02
2018-09-15T23:00:38.283Z,80.87
2018-09-15T23:03:06.656Z,81.17
2018-09-15T23:05:35.039Z,81.91
2018-09-15T23:08:03.434Z,81.48
2018-09-15T23:10:31.771Z,81.41
2018-09-15T23:13:00.155Z,82.43
2018-09-15T23:15:28.501Z,82.26
2018-09-15T23:17:56.820Z,82.08
2018-09-15T23:20:25.288Z,81.96
2018-09-15T23:22:58.051Z,81.79
2018-09-15T23:25:26.463Z,82.23
2018-09-15T23:27:54.789Z,82.18
2018-09-15T23:30:23.167Z,82.19
2018-09-15T23:32:51.497Z,82.79
2018-09-15T23:35:19.919Z,82.90
2018-09-15T23:37:48.298Z,83.84
2018-09-15T23:40:16.694Z,83.77
2018-09-15T23:42:45.014Z,83.87
2018-09-15T23:45:13.372Z,83.77
2018-09-15T23:47:41.746Z,84.00
2018-09-15T23:50:10.175Z,84.41
2018-09-15T23:52:38.539Z,83.82
2018-09-15T23:55:07.030Z,84.29
2018-09-15T23:57:35.341Z,85.15
